sensor_id;sensor_type;location;lat;lon;timestamp;pressure;altitude;pressure_sealevel;temperature;humidity
42691;BME280;28306;55.744;37.578;2022-08-11T00:02:33;100698.06;;;25.15;32.25
42691;BME280;28306;55.744;37.578;2022-08-11T00:05:16;100695.34;;;25.15;32.16
42691;BME280;28306;55.744;37.578;2022-08-11T00:07:47;100697.34;;;25.08;32.33
42691;BME280;28306;55.744;37.578;2022-08-11T00:10:19;100695.47;;;25.08;32.22
42691;BME280;28306;55.744;37.578;2022-08-11T00:13:02;100696.63;;;25.12;32.25
42691;BME280;28306;55.744;37.578;2022-08-11T00:15:41;100697.72;;;25.11;32.46
42691;BME280;28306;55.744;37.578;2022-08-11T00:18:08;100694.63;;;25.08;32.47
42691;BME280;28306;55.744;37.578;2022-08-11T00:20:37;100680.13;;;24.90;32.50
42691;BME280;28306;55.744;37.578;2022-08-11T00:23:10;100698.44;;;25.07;32.42
42691;BME280;28306;55.744;37.578;2022-08-11T00:25:40;100693.97;;;25.00;32.50
42691;BME280;28306;55.744;37.578;2022-08-11T00:28:42;100707.19;;;25.09;32.65
42691;BME280;28306;55.744;37.578;2022-08-11T00:31:17;100703.28;;;25.05;32.66
42691;BME280;28306;55.744;37.578;2022-08-11T00:33:44;100679.53;;;24.88;32.71
42691;BME280;28306;55.744;37.578;2022-08-11T00:36:14;100698.94;;;25.04;32.78
42691;BME280;28306;55.744;37.578;2022-08-11T00:38:42;100700.22;;;25.01;32.88
42691;BME280;28306;55.744;37.578;2022-08-11T00:53:02;100722.94;;;25.07;33.03
42691;BME280;28306;55.744;37.578;2022-08-11T00:55:57;100714.19;;;25.05;33.08
42691;BME280;28306;55.744;37.578;2022-08-11T01:01:44;100723.66;;;25.02;32.98
42691;BME280;28306;55.744;37.578;2022-08-11T01:12:25;100722.16;;;24.94;33.27
42691;BME280;28306;55.744;37.578;2022-08-11T01:48:07;100741.69;;;24.91;33.84
42691;BME280;28306;55.744;37.578;2022-08-11T01:59:34;100752.00;;;24.89;34.05
42691;BME280;28306;55.744;37.578;2022-08-11T02:10:30;100754.72;;;24.89;33.99
42691;BME280;28306;55.744;37.578;2022-08-11T02:13:33;100759.91;;;24.91;33.89
42691;BME280;28306;55.744;37.578;2022-08-11T02:25:30;100754.22;;;24.80;34.34
42691;BME280;28306;55.744;37.578;2022-08-11T02:28:34;100766.66;;;24.88;34.21
42691;BME280;28306;55.744;37.578;2022-08-11T02:31:01;100771.53;;;24.86;34.36
42691;BME280;28306;55.744;37.578;2022-08-11T02:33:56;100761.81;;;24.78;34.29
42691;BME280;28306;55.744;37.578;2022-08-11T02:36:39;100760.88;;;24.85;34.34
42691;BME280;28306;55.744;37.578;2022-08-11T02:39:11;100752.56;;;24.79;34.41
42691;BME280;28306;55.744;37.578;2022-08-11T02:47:08;100774.25;;;24.86;34.35
42691;BME280;28306;55.744;37.578;2022-08-11T02:49:46;100758.47;;;24.76;34.57
42691;BME280;28306;55.744;37.578;2022-08-11T03:01:13;100781.94;;;24.89;34.59
42691;BME280;28306;55.744;37.578;2022-08-11T03:04:07;100788.31;;;24.83;34.49
42691;BME280;28306;55.744;37.578;2022-08-11T03:06:51;100790.34;;;24.88;34.55
42691;BME280;28306;55.744;37.578;2022-08-11T03:09:29;100779.31;;;24.82;34.72
42691;BME280;28306;55.744;37.578;2022-08-11T03:12:17;100780.97;;;24.83;34.41
42691;BME280;28306;55.744;37.578;2022-08-11T03:15:28;100792.59;;;24.91;34.52
42691;BME280;28306;55.744;37.578;2022-08-11T03:18:25;100781.78;;;24.84;34.47
42691;BME280;28306;55.744;37.578;2022-08-11T03:24:13;100796.13;;;24.91;34.36
42691;BME280;28306;55.744;37.578;2022-08-11T03:29:18;100801.00;;;24.89;34.53
42691;BME280;28306;55.744;37.578;2022-08-11T03:32:21;100779.31;;;24.82;34.31
42691;BME280;28306;55.744;37.578;2022-08-11T03:34:50;100805.97;;;24.92;34.50
42691;BME280;28306;55.744;37.578;2022-08-11T03:43:16;100808.44;;;24.94;34.70
42691;BME280;28306;55.744;37.578;2022-08-11T03:48:27;100805.72;;;24.94;34.62
42691;BME280;28306;55.744;37.578;2022-08-11T03:51:06;100814.72;;;24.94;34.62
42691;BME280;28306;55.744;37.578;2022-08-11T03:56:37;100811.97;;;24.94;34.64
42691;BME280;28306;55.744;37.578;2022-08-11T04:13:34;100796.09;;;25.03;34.53
42691;BME280;28306;55.744;37.578;2022-08-11T04:30:13;100771.97;;;24.95;34.29
42691;BME280;28306;55.744;37.578;2022-08-11T04:33:13;100784.16;;;25.04;34.71
42691;BME280;28306;55.744;37.578;2022-08-11T04:50:44;100806.75;;;25.16;34.93
42691;BME280;28306;55.744;37.578;2022-08-11T04:56:30;100813.88;;;25.17;35.03
42691;BME280;28306;55.744;37.578;2022-08-11T05:03:11;100812.06;;;25.23;35.13
42691;BME280;28306;55.744;37.578;2022-08-11T05:06:17;100808.75;;;25.21;34.92
42691;BME280;28306;55.744;37.578;2022-08-11T05:09:25;100808.28;;;25.24;34.96
42691;BME280;28306;55.744;37.578;2022-08-11T05:12:11;100811.00;;;25.24;34.99
42691;BME280;28306;55.744;37.578;2022-08-11T05:14:49;100812.91;;;25.24;35.03
42691;BME280;28306;55.744;37.578;2022-08-11T05:17:41;100800.25;;;25.17;35.08
42691;BME280;28306;55.744;37.578;2022-08-11T05:20:54;100812.22;;;25.28;35.01
42691;BME280;28306;55.744;37.578;2022-08-11T05:23:42;100811.81;;;25.25;35.07
42691;BME280;28306;55.744;37.578;2022-08-11T05:26:38;100818.94;;;25.26;35.09
42691;BME280;28306;55.744;37.578;2022-08-11T05:32:19;100808.03;;;25.26;35.23
42691;BME280;28306;55.744;37.578;2022-08-11T05:35:06;100812.66;;;25.25;35.07
42691;BME280;28306;55.744;37.578;2022-08-11T05:37:40;100818.00;;;25.32;35.11
42691;BME280;28306;55.744;37.578;2022-08-11T05:40:12;100817.78;;;25.33;35.12
42691;BME280;28306;55.744;37.578;2022-08-11T05:43:00;100816.72;;;25.34;35.07
42691;BME280;28306;55.744;37.578;2022-08-11T05:45:55;100813.72;;;25.36;35.25
42691;BME280;28306;55.744;37.578;2022-08-11T05:48:42;100808.78;;;25.33;35.12
42691;BME280;28306;55.744;37.578;2022-08-11T05:51:38;100806.97;;;25.39;35.19
42691;BME280;28306;55.744;37.578;2022-08-11T05:54:25;100820.34;;;25.40;35.06
42691;BME280;28306;55.744;37.578;2022-08-11T05:57:22;100814.66;;;25.42;35.06
42691;BME280;28306;55.744;37.578;2022-08-11T05:59:48;100810.19;;;25.35;35.07
42691;BME280;28306;55.744;37.578;2022-08-11T06:02:15;100815.16;;;25.39;35.24
42691;BME280;28306;55.744;37.578;2022-08-11T06:04:42;100823.66;;;25.42;35.02
42691;BME280;28306;55.744;37.578;2022-08-11T06:07:10;100806.16;;;25.38;35.14
42691;BME280;28306;55.744;37.578;2022-08-11T06:12:19;100805.19;;;25.44;34.91
42691;BME280;28306;55.744;37.578;2022-08-11T06:14:49;100805.19;;;25.44;35.21
42691;BME280;28306;55.744;37.578;2022-08-11T06:17:22;100808.25;;;25.48;35.14
42691;BME280;28306;55.744;37.578;2022-08-11T06:19:48;100808.84;;;25.50;34.96
42691;BME280;28306;55.744;37.578;2022-08-11T06:22:19;100796.16;;;25.44;35.06
42691;BME280;28306;55.744;37.578;2022-08-11T06:24:57;100805.06;;;25.51;34.93
42691;BME280;28306;55.744;37.578;2022-08-11T06:27:24;100811.94;;;25.53;34.89
42691;BME280;28306;55.744;37.578;2022-08-11T06:29:52;100810.16;;;25.47;35.03
42691;BME280;28306;55.744;37.578;2022-08-11T06:32:23;100814.66;;;25.53;34.90
42691;BME280;28306;55.744;37.578;2022-08-11T06:35:06;100823.41;;;25.56;34.89
42691;BME280;28306;55.744;37.578;2022-08-11T06:38:01;100821.84;;;25.60;34.96
42691;BME280;28306;55.744;37.578;2022-08-11T06:43:57;100817.81;;;25.62;34.87
42691;BME280;28306;55.744;37.578;2022-08-11T06:46:27;100818.03;;;25.61;34.87
42691;BME280;28306;55.744;37.578;2022-08-11T06:48:54;100812.03;;;25.59;34.61
42691;BME280;28306;55.744;37.578;2022-08-11T06:51:21;100803.50;;;25.55;34.97
42691;BME280;28306;55.744;37.578;2022-08-11T06:53:53;100811.44;;;25.57;34.93
42691;BME280;28306;55.744;37.578;2022-08-11T06:56:30;100816.16;;;25.61;34.89
42691;BME280;28306;55.744;37.578;2022-08-11T06:59:17;100817.56;;;25.64;34.92
42691;BME280;28306;55.744;37.578;2022-08-11T07:04:51;100816.25;;;25.66;34.79
42691;BME280;28306;55.744;37.578;2022-08-11T07:10:46;100817.94;;;25.67;34.75
42691;BME280;28306;55.744;37.578;2022-08-11T07:13:35;100814.59;;;25.65;34.89
42691;BME280;28306;55.744;37.578;2022-08-11T07:16:26;100820.13;;;25.70;34.80
42691;BME280;28306;55.744;37.578;2022-08-11T07:19:04;100788.66;;;25.63;34.73
42691;BME280;28306;55.744;37.578;2022-08-11T07:21:49;100810.66;;;25.73;34.72
42691;BME280;28306;55.744;37.578;2022-08-11T07:24:37;100805.78;;;25.75;34.67
42691;BME280;28306;55.744;37.578;2022-08-11T07:27:24;100811.84;;;25.77;34.53
42691;BME280;28306;55.744;37.578;2022-08-11T07:30:11;100813.00;;;25.81;34.44
42691;BME280;28306;55.744;37.578;2022-08-11T07:32:49;100784.94;;;25.69;34.47
42691;BME280;28306;55.744;37.578;2022-08-11T07:35:17;100808.72;;;25.85;34.44
42691;BME280;28306;55.744;37.578;2022-08-11T07:37:52;100814.25;;;25.90;34.38
42691;BME280;28306;55.744;37.578;2022-08-11T07:40:22;100770.34;;;25.75;34.40
42691;BME280;28306;55.744;37.578;2022-08-11T07:42:49;100785.34;;;25.89;34.21
42691;BME280;28306;55.744;37.578;2022-08-11T07:45:16;100808.22;;;26.00;34.09
42691;BME280;28306;55.744;37.578;2022-08-11T07:48:00;100795.41;;;26.01;33.99
42691;BME280;28306;55.744;37.578;2022-08-11T07:50:45;100802.34;;;26.08;34.00
42691;BME280;28306;55.744;37.578;2022-08-11T07:53:31;100808.16;;;26.12;33.87
42691;BME280;28306;55.744;37.578;2022-08-11T07:55:59;100810.06;;;26.12;33.59
42691;BME280;28306;55.744;37.578;2022-08-11T07:58:26;100817.38;;;26.11;34.10
42691;BME280;28306;55.744;37.578;2022-08-11T08:01:20;100815.41;;;26.06;34.15
42691;BME280;28306;55.744;37.578;2022-08-11T08:04:06;100813.84;;;26.11;34.04
42691;BME280;28306;55.744;37.578;2022-08-11T08:06:51;100802.34;;;26.08;34.05
42691;BME280;28306;55.744;37.578;2022-08-11T08:09:39;100802.69;;;26.12;33.62
42691;BME280;28306;55.744;37.578;2022-08-11T08:12:24;100792.59;;;26.13;33.59
42691;BME280;28306;55.744;37.578;2022-08-11T08:15:10;100807.00;;;26.25;33.57
42691;BME280;28306;55.744;37.578;2022-08-11T08:18:01;100805.44;;;26.29;33.47
42691;BME280;28306;55.744;37.578;2022-08-11T08:20:31;100805.19;;;26.31;33.24
42691;BME280;28306;55.744;37.578;2022-08-11T08:23:01;100806.00;;;26.31;33.29
42691;BME280;28306;55.744;37.578;2022-08-11T08:25:30;100803.28;;;26.31;33.24
42691;BME280;28306;55.744;37.578;2022-08-11T08:27:58;100795.94;;;26.32;33.15
42691;BME280;28306;55.744;37.578;2022-08-11T08:30:25;100795.94;;;26.32;33.34
42691;BME280;28306;55.744;37.578;2022-08-11T08:33:32;100800.63;;;26.36;33.33
42691;BME280;28306;55.744;37.578;2022-08-11T08:36:00;100794.69;;;26.39;33.18
42691;BME280;28306;55.744;37.578;2022-08-11T08:38:40;100783.13;;;26.32;33.32
42691;BME280;28306;55.744;37.578;2022-08-11T08:41:07;100785.09;;;26.37;33.05
42691;BME280;28306;55.744;37.578;2022-08-11T08:43:35;100794.19;;;26.42;33.06
42691;BME280;28306;55.744;37.578;2022-08-11T08:46:04;100790.63;;;26.42;33.01
42691;BME280;28306;55.744;37.578;2022-08-11T08:48:32;100785.75;;;26.44;32.96
42691;BME280;28306;55.744;37.578;2022-08-11T08:51:06;100791.31;;;26.49;32.96
42691;BME280;28306;55.744;37.578;2022-08-11T08:53:53;100793.78;;;26.51;32.93
42691;BME280;28306;55.744;37.578;2022-08-11T08:56:25;100793.78;;;26.51;32.76
42691;BME280;28306;55.744;37.578;2022-08-11T08:58:52;100799.84;;;26.70;32.88
42691;BME280;28306;55.744;37.578;2022-08-11T09:01:18;100788.81;;;26.65;32.74
42691;BME280;28306;55.744;37.578;2022-08-11T09:03:46;100787.16;;;26.64;32.72
42691;BME280;28306;55.744;37.578;2022-08-11T09:06:14;100791.47;;;26.59;32.73
42691;BME280;28306;55.744;37.578;2022-08-11T09:08:44;100791.22;;;26.61;32.78
42691;BME280;28306;55.744;37.578;2022-08-11T09:11:12;100793.94;;;26.61;32.76
42691;BME280;28306;55.744;37.578;2022-08-11T09:13:57;100791.81;;;26.63;32.68
42691;BME280;28306;55.744;37.578;2022-08-11T09:16:24;100760.78;;;26.52;32.67
42691;BME280;28306;55.744;37.578;2022-08-11T09:18:50;100787.16;;;26.64;32.74
42691;BME280;28306;55.744;37.578;2022-08-11T09:21:18;100779.78;;;26.64;32.51
42691;BME280;28306;55.744;37.578;2022-08-11T09:23:48;100776.84;;;26.66;32.51
42691;BME280;28306;55.744;37.578;2022-08-11T09:26:40;100762.78;;;26.57;32.57
42691;BME280;28306;55.744;37.578;2022-08-11T09:29:28;100785.59;;;26.68;32.37
42691;BME280;28306;55.744;37.578;2022-08-11T09:31:55;100773.03;;;26.67;32.36
42691;BME280;28306;55.744;37.578;2022-08-11T09:34:21;100783.16;;;26.66;32.33
42691;BME280;28306;55.744;37.578;2022-08-11T09:36:48;100778.50;;;26.67;32.46
42691;BME280;28306;55.744;37.578;2022-08-11T09:39:44;100783.72;;;26.68;32.45
42691;BME280;28306;55.744;37.578;2022-08-11T09:42:28;100768.06;;;26.64;32.30
42691;BME280;28306;55.744;37.578;2022-08-11T09:45:15;100778.75;;;26.65;32.33
42691;BME280;28306;55.744;37.578;2022-08-11T09:47:42;100774.13;;;26.66;32.30
42691;BME280;28306;55.744;37.578;2022-08-11T09:50:09;100777.75;;;26.71;32.18
42691;BME280;28306;55.744;37.578;2022-08-11T09:52:37;100779.75;;;26.76;32.25
42691;BME280;28306;55.744;37.578;2022-08-11T09:55:05;100765.66;;;26.67;32.27
42691;BME280;28306;55.744;37.578;2022-08-11T09:57:38;100777.31;;;26.79;31.97
42691;BME280;28306;55.744;37.578;2022-08-11T10:00:28;100762.25;;;26.77;32.05
42691;BME280;28306;55.744;37.578;2022-08-11T10:02:54;100778.22;;;26.85;31.93
42691;BME280;28306;55.744;37.578;2022-08-11T10:05:21;100772.44;;;26.82;32.21
42691;BME280;28306;55.744;37.578;2022-08-11T10:08:09;100753.69;;;26.68;32.06
42691;BME280;28306;55.744;37.578;2022-08-11T10:10:38;100769.94;;;26.80;32.05
42691;BME280;28306;55.744;37.578;2022-08-11T10:13:07;100772.69;;;26.80;31.83
42691;BME280;28306;55.744;37.578;2022-08-11T10:15:35;100756.22;;;26.75;32.08
42691;BME280;28306;55.744;37.578;2022-08-11T10:21:11;100761.19;;;26.78;31.80
42691;BME280;28306;55.744;37.578;2022-08-11T10:23:38;100742.78;;;26.68;31.89
42691;BME280;28306;55.744;37.578;2022-08-11T10:26:28;100757.06;;;26.75;32.03
42691;BME280;28306;55.744;37.578;2022-08-11T10:29:13;100757.66;;;26.77;31.97
42691;BME280;28306;55.744;37.578;2022-08-11T10:31:59;100763.41;;;26.81;31.82
42691;BME280;28306;55.744;37.578;2022-08-11T10:34:46;100762.34;;;26.82;31.88
42691;BME280;28306;55.744;37.578;2022-08-11T10:37:13;100773.03;;;26.84;31.75
42691;BME280;28306;55.744;37.578;2022-08-11T10:39:40;100753.56;;;26.80;31.85
42691;BME280;28306;55.744;37.578;2022-08-11T10:42:07;100760.50;;;26.88;31.82
42691;BME280;28306;55.744;37.578;2022-08-11T10:44:54;100750.69;;;26.87;31.85
42691;BME280;28306;55.744;37.578;2022-08-11T10:47:20;100751.25;;;26.89;31.91
42691;BME280;28306;55.744;37.578;2022-08-11T10:50:08;100753.69;;;27.07;31.93
42691;BME280;28306;55.744;37.578;2022-08-11T10:52:56;100739.06;;;26.96;31.46
42691;BME280;28306;55.744;37.578;2022-08-11T10:55:42;100736.28;;;26.91;31.38
42691;BME280;28306;55.744;37.578;2022-08-11T10:58:27;100741.53;;;26.98;31.35
42691;BME280;28306;55.744;37.578;2022-08-11T11:01:31;100738.56;;;27.00;31.20
42691;BME280;28306;55.744;37.578;2022-08-11T11:04:05;100733.66;;;27.02;31.23
42691;BME280;28306;55.744;37.578;2022-08-11T11:07:03;100735.06;;;27.04;31.45
42691;BME280;28306;55.744;37.578;2022-08-11T11:09:32;100734.47;;;27.02;31.04
42691;BME280;28306;55.744;37.578;2022-08-11T11:12:14;100734.72;;;27.01;30.96
42691;BME280;28306;55.744;37.578;2022-08-11T11:15:03;100735.56;;;27.01;31.39
42691;BME280;28306;55.744;37.578;2022-08-11T11:18:02;100722.72;;;27.02;31.26
42691;BME280;28306;55.744;37.578;2022-08-11T11:23:17;100722.16;;;27.00;31.47
42691;BME280;28306;55.744;37.578;2022-08-11T11:37:30;100722.16;;;27.00;30.96
42691;BME280;28306;55.744;37.578;2022-08-11T11:39:59;100712.00;;;26.95;30.65
42691;BME280;28306;55.744;37.578;2022-08-11T11:42:25;100717.22;;;26.96;30.49
42691;BME280;28306;55.744;37.578;2022-08-11T11:44:52;100701.59;;;26.92;30.60
42691;BME280;28306;55.744;37.578;2022-08-11T11:47:19;100716.97;;;26.98;30.45
42691;BME280;28306;55.744;37.578;2022-08-11T11:49:48;100713.41;;;26.97;31.02
42691;BME280;28306;55.744;37.578;2022-08-11T11:52:16;100713.16;;;26.99;30.91
42691;BME280;28306;55.744;37.578;2022-08-11T11:54:44;100708.50;;;27.00;30.97
42691;BME280;28306;55.744;37.578;2022-08-11T11:57:14;100700.25;;;26.94;31.24
42691;BME280;28306;55.744;37.578;2022-08-11T11:59:59;100705.84;;;27.05;30.75
42691;BME280;28306;55.744;37.578;2022-08-11T12:02:44;100703.59;;;27.02;30.86
42691;BME280;28306;55.744;37.578;2022-08-11T12:05:10;100700.69;;;27.08;30.80
42691;BME280;28306;55.744;37.578;2022-08-11T12:07:37;100702.91;;;27.56;30.28
42691;BME280;28306;55.744;37.578;2022-08-11T12:10:21;100684.50;;;28.48;28.77
42691;BME280;28306;55.744;37.578;2022-08-11T12:12:48;100681.88;;;29.27;27.86
42691;BME280;28306;55.744;37.578;2022-08-11T12:15:33;100686.09;;;30.12;26.61
42691;BME280;28306;55.744;37.578;2022-08-11T12:18:00;100684.09;;;30.59;25.90
42691;BME280;28306;55.744;37.578;2022-08-11T12:20:26;100702.09;;;31.06;25.50
42691;BME280;28306;55.744;37.578;2022-08-11T12:22:53;100684.66;;;31.26;24.63
42691;BME280;28306;55.744;37.578;2022-08-11T12:25:38;100687.84;;;31.43;24.81
42691;BME280;28306;55.744;37.578;2022-08-11T12:28:23;100690.25;;;31.60;24.71
42691;BME280;28306;55.744;37.578;2022-08-11T12:30:52;100688.59;;;31.59;24.20
42691;BME280;28306;55.744;37.578;2022-08-11T12:33:18;100693.69;;;31.32;24.68
42691;BME280;28306;55.744;37.578;2022-08-11T12:35:46;100690.28;;;31.50;24.38
42691;BME280;28306;55.744;37.578;2022-08-11T12:38:13;100684.34;;;31.77;23.95
42691;BME280;28306;55.744;37.578;2022-08-11T12:40:41;100693.19;;;32.09;23.61
42691;BME280;28306;55.744;37.578;2022-08-11T12:43:27;100679.72;;;31.68;24.09
42691;BME280;28306;55.744;37.578;2022-08-11T12:46:24;100685.31;;;31.07;25.12
42691;BME280;28306;55.744;37.578;2022-08-11T12:48:57;100687.53;;;31.00;24.98
42691;BME280;28306;55.744;37.578;2022-08-11T12:51:48;100685.50;;;30.41;25.72
42691;BME280;28306;55.744;37.578;2022-08-11T12:54:30;100684.16;;;29.92;26.36
42691;BME280;28306;55.744;37.578;2022-08-11T12:57:02;100690.19;;;29.58;26.69
42691;BME280;28306;55.744;37.578;2022-08-11T12:59:49;100679.41;;;29.36;27.19
42691;BME280;28306;55.744;37.578;2022-08-11T13:02:34;100681.34;;;29.35;27.13
42691;BME280;28306;55.744;37.578;2022-08-11T13:05:19;100687.09;;;29.28;27.26
42691;BME280;28306;55.744;37.578;2022-08-11T13:07:46;100680.53;;;29.29;27.29
42691;BME280;28306;55.744;37.578;2022-08-11T13:10:16;100676.72;;;29.46;27.29
42691;BME280;28306;55.744;37.578;2022-08-11T13:13:05;100672.66;;;29.79;26.71
42691;BME280;28306;55.744;37.578;2022-08-11T13:15:32;100671.00;;;29.89;26.41
42691;BME280;28306;55.744;37.578;2022-08-11T13:17:59;100681.16;;;30.04;26.49
42691;BME280;28306;55.744;37.578;2022-08-11T13:20:26;100669.09;;;30.10;26.17
42691;BME280;28306;55.744;37.578;2022-08-11T13:22:54;100679.19;;;30.25;25.87
42691;BME280;28306;55.744;37.578;2022-08-11T13:25:22;100670.69;;;30.42;25.09
42691;BME280;28306;55.744;37.578;2022-08-11T13:27:49;100680.00;;;30.61;24.99
42691;BME280;28306;55.744;37.578;2022-08-11T13:30:16;100668.22;;;30.40;25.29
42691;BME280;28306;55.744;37.578;2022-08-11T13:33:03;100675.09;;;30.17;25.61
42691;BME280;28306;55.744;37.578;2022-08-11T13:35:32;100664.91;;;30.38;25.36
42691;BME280;28306;55.744;37.578;2022-08-11T13:38:03;100663.75;;;30.70;24.92
42691;BME280;28306;55.744;37.578;2022-08-11T13:40:30;100675.25;;;30.77;24.84
42691;BME280;28306;55.744;37.578;2022-08-11T13:42:57;100669.47;;;30.73;24.88
42691;BME280;28306;55.744;37.578;2022-08-11T13:45:25;100664.00;;;30.79;24.85
42691;BME280;28306;55.744;37.578;2022-08-11T13:47:55;100661.25;;;30.73;24.57
42691;BME280;28306;55.744;37.578;2022-08-11T13:50:23;100661.81;;;30.76;24.59
42691;BME280;28306;55.744;37.578;2022-08-11T13:53:15;100657.94;;;30.77;24.79
42691;BME280;28306;55.744;37.578;2022-08-11T13:55:42;100665.34;;;30.76;24.66
42691;BME280;28306;55.744;37.578;2022-08-11T13:58:12;100653.28;;;30.72;24.67
42691;BME280;28306;55.744;37.578;2022-08-11T14:00:40;100648.34;;;30.69;24.90
42691;BME280;28306;55.744;37.578;2022-08-11T14:03:09;100648.06;;;30.70;24.73
42691;BME280;28306;55.744;37.578;2022-08-11T14:05:45;100648.09;;;30.65;24.96
42691;BME280;28306;55.744;37.578;2022-08-11T14:08:15;100647.53;;;30.68;24.78
42691;BME280;28306;55.744;37.578;2022-08-11T14:10:42;100652.44;;;30.82;24.58
42691;BME280;28306;55.744;37.578;2022-08-11T14:13:12;100648.28;;;30.89;24.62
42691;BME280;28306;55.744;37.578;2022-08-11T14:16:01;100646.06;;;30.91;24.44
42691;BME280;28306;55.744;37.578;2022-08-11T14:18:30;100645.81;;;30.83;24.76
42691;BME280;28306;55.744;37.578;2022-08-11T14:20:59;100633.78;;;30.68;24.76
42691;BME280;28306;55.744;37.578;2022-08-11T14:23:49;100637.09;;;30.65;25.03
42691;BME280;28306;55.744;37.578;2022-08-11T14:26:20;100628.34;;;30.53;25.20
42691;BME280;28306;55.744;37.578;2022-08-11T14:29:12;100632.19;;;30.57;25.09
42691;BME280;28306;55.744;37.578;2022-08-11T14:31:50;100637.38;;;30.64;25.14
42691;BME280;28306;55.744;37.578;2022-08-11T14:34:20;100627.50;;;30.63;24.69
42691;BME280;28306;55.744;37.578;2022-08-11T14:36:50;100627.78;;;30.66;24.84
42691;BME280;28306;55.744;37.578;2022-08-11T14:39:21;100626.66;;;30.72;24.88
42691;BME280;28306;55.744;37.578;2022-08-11T14:41:53;100628.81;;;30.81;24.68
42691;BME280;28306;55.744;37.578;2022-08-11T14:44:40;100627.16;;;30.85;24.44
42691;BME280;28306;55.744;37.578;2022-08-11T14:47:26;100627.69;;;30.87;24.46
42691;BME280;28306;55.744;37.578;2022-08-11T14:49:54;100624.69;;;30.83;24.59
42691;BME280;28306;55.744;37.578;2022-08-11T14:52:20;100623.84;;;30.83;24.63
42691;BME280;28306;55.744;37.578;2022-08-11T14:54:49;100614.00;;;30.71;24.64
42691;BME280;28306;55.744;37.578;2022-08-11T14:57:38;100623.34;;;30.70;24.81
42691;BME280;28306;55.744;37.578;2022-08-11T15:00:07;100621.19;;;30.62;24.86
42691;BME280;28306;55.744;37.578;2022-08-11T15:02:38;100620.13;;;30.58;24.93
42691;BME280;28306;55.744;37.578;2022-08-11T15:05:23;100620.69;;;30.55;24.87
42691;BME280;28306;55.744;37.578;2022-08-11T15:07:54;100618.78;;;30.50;24.87
42691;BME280;28306;55.744;37.578;2022-08-11T15:10:22;100605.34;;;30.39;24.95
42691;BME280;28306;55.744;37.578;2022-08-11T15:12:47;100609.22;;;30.17;25.08
42691;BME280;28306;55.744;37.578;2022-08-11T15:15:15;100613.66;;;30.02;25.35
42691;BME280;28306;55.744;37.578;2022-08-11T15:18:04;100618.88;;;29.89;25.58
42691;BME280;28306;55.744;37.578;2022-08-11T15:20:30;100622.44;;;29.74;25.81
42691;BME280;28306;55.744;37.578;2022-08-11T15:23:15;100616.38;;;29.66;25.88
42691;BME280;28306;55.744;37.578;2022-08-11T15:26:12;100616.41;;;29.56;25.87
42691;BME280;28306;55.744;37.578;2022-08-11T15:28:50;100616.38;;;29.46;25.94
42691;BME280;28306;55.744;37.578;2022-08-11T15:31:36;100619.41;;;29.39;26.18
42691;BME280;28306;55.744;37.578;2022-08-11T15:34:24;100621.56;;;29.27;26.30
42691;BME280;28306;55.744;37.578;2022-08-11T15:37:13;100622.41;;;29.22;26.35
42691;BME280;28306;55.744;37.578;2022-08-11T15:40:08;100622.09;;;29.19;26.59
42691;BME280;28306;55.744;37.578;2022-08-11T15:43:18;100619.03;;;29.15;26.60
42691;BME280;28306;55.744;37.578;2022-08-11T15:46:30;100617.38;;;29.09;26.63
42691;BME280;28306;55.744;37.578;2022-08-11T15:49:22;100616.56;;;29.03;27.21
42691;BME280;28306;55.744;37.578;2022-08-11T15:52:06;100614.91;;;28.92;26.94
42691;BME280;28306;55.744;37.578;2022-08-11T15:54:34;100614.31;;;28.85;26.88
42691;BME280;28306;55.744;37.578;2022-08-11T15:57:03;100609.38;;;28.76;27.14
42691;BME280;28306;55.744;37.578;2022-08-11T15:59:36;100618.38;;;28.72;27.10
42691;BME280;28306;55.744;37.578;2022-08-11T16:02:24;100614.78;;;28.66;27.11
42691;BME280;28306;55.744;37.578;2022-08-11T16:04:58;100618.06;;;28.63;27.16
42691;BME280;28306;55.744;37.578;2022-08-11T16:07:30;100616.13;;;28.58;27.07
42691;BME280;28306;55.744;37.578;2022-08-11T16:10:01;100620.47;;;28.54;27.14
42691;BME280;28306;55.744;37.578;2022-08-11T16:12:35;100610.34;;;28.50;27.10
42691;BME280;28306;55.744;37.578;2022-08-11T16:15:04;100603.72;;;28.40;27.35
42691;BME280;28306;55.744;37.578;2022-08-11T16:17:56;100610.53;;;28.43;27.57
42691;BME280;28306;55.744;37.578;2022-08-11T16:20:25;100607.78;;;28.38;27.39
42691;BME280;28306;55.744;37.578;2022-08-11T16:22:56;100610.50;;;28.33;27.45
42691;BME280;28306;55.744;37.578;2022-08-11T16:25:24;100611.84;;;28.30;27.36
42691;BME280;28306;55.744;37.578;2022-08-11T16:27:54;100615.97;;;28.28;27.42
42691;BME280;28306;55.744;37.578;2022-08-11T16:30:24;100600.88;;;28.20;27.50
42691;BME280;28306;55.744;37.578;2022-08-11T16:32:52;100598.94;;;28.15;27.66
42691;BME280;28306;55.744;37.578;2022-08-11T16:35:22;100607.16;;;28.20;27.65
42691;BME280;28306;55.744;37.578;2022-08-11T16:38:07;100607.16;;;28.20;27.49
42691;BME280;28306;55.744;37.578;2022-08-11T16:40:54;100605.22;;;28.16;27.73
42691;BME280;28306;55.744;37.578;2022-08-11T16:43:23;100612.03;;;28.13;27.68
42691;BME280;28306;55.744;37.578;2022-08-11T16:46:08;100601.03;;;28.03;28.10
42691;BME280;28306;55.744;37.578;2022-08-11T16:48:54;100623.22;;;28.07;27.71
42691;BME280;28306;55.744;37.578;2022-08-11T16:51:21;100618.53;;;28.02;27.92